createdAt,value
2019-05-19T00:01:20.864Z,48.47
2019-05-19T00:06:19.032Z,48.17
2019-05-19T00:08:47.775Z,49.15
2019-05-19T00:11:15.959Z,51.33
2019-05-19T00:13:45.190Z,46.08
2019-05-19T00:16:13.198Z,49.88
2019-05-19T00:18:41.275Z,47.25
2019-05-19T00:21:09.479Z,51.77
2019-05-19T00:23:38.350Z,47.00
2019-05-19T00:26:06.287Z,46.90
2019-05-19T00:28:35.872Z,44.15
2019-05-19T00:33:33.112Z,50.25
2019-05-19T00:36:01.400Z,45.63
2019-05-19T00:38:29.988Z,45.90
2019-05-19T00:40:58.783Z,46.42
2019-05-19T00:43:27.153Z,45.90
2019-05-19T00:45:55.498Z,49.25
2019-05-19T00:48:24.103Z,48.45
2019-05-19T00:53:21.058Z,45.95
2019-05-19T00:55:50.094Z,46.02
2019-05-19T00:58:18.491Z,45.67
2019-05-19T01:00:47.073Z,45.60
2019-05-19T01:03:16.142Z,44.47
2019-05-19T01:05:44.351Z,40.57
2019-05-19T01:08:13.801Z,44.77
2019-05-19T01:13:10.965Z,43.92
2019-05-19T01:15:39.011Z,43.68
2019-05-19T01:18:07.510Z,44.50
2019-05-19T01:20:36.787Z,44.65
2019-05-19T01:23:04.791Z,51.02
2019-05-19T01:25:58.210Z,50.88
2019-05-19T01:28:40.931Z,48.80
2019-05-19T01:31:24.485Z,45.17
2019-05-19T01:34:05.494Z,51.63
2019-05-19T01:36:43.971Z,46.75
2019-05-19T01:39:24.180Z,46.83
2019-05-19T01:42:04.311Z,50.33
2019-05-19T01:44:45.146Z,48.87
2019-05-19T01:47:21.597Z,46.65
2019-05-19T01:50:17.634Z,47.87
2019-05-19T01:52:50.390Z,45.28
2019-05-19T01:55:35.084Z,45.00
2019-05-19T01:58:13.418Z,47.98
2019-05-19T02:00:54.483Z,46.53
2019-05-19T02:03:45.242Z,43.25
2019-05-19T02:06:28.738Z,47.30
2019-05-19T02:09:09.742Z,45.23
2019-05-19T02:11:47.677Z,47.17
2019-05-19T02:14:30.328Z,50.75
2019-05-19T02:17:06.189Z,57.33
2019-05-19T02:19:50.132Z,53.35
2019-05-19T02:22:33.151Z,46.90
2019-05-19T02:25:16.406Z,53.98
2019-05-19T02:27:49.857Z,48.80
2019-05-19T02:30:19.601Z,52.63
2019-05-19T02:32:48.892Z,48.13
2019-05-19T02:35:16.925Z,46.05
2019-05-19T02:37:45.542Z,44.65
2019-05-19T02:42:42.888Z,51.13
2019-05-19T02:45:11.689Z,49.08
2019-05-19T02:47:42.459Z,52.43
2019-05-19T02:50:11.433Z,54.35
2019-05-19T02:52:41.150Z,51.37
2019-05-19T02:57:41.069Z,46.00
2019-05-19T03:00:09.921Z,54.03
2019-05-19T03:02:38.402Z,49.73
2019-05-19T03:05:07.295Z,45.08
2019-05-19T03:10:04.496Z,45.52
2019-05-19T03:12:32.916Z,44.23
2019-05-19T03:15:01.146Z,47.00
2019-05-19T03:17:29.580Z,44.90
2019-05-19T03:19:58.006Z,47.23
2019-05-19T03:22:26.616Z,48.83
2019-05-19T03:24:55.135Z,47.30
2019-05-19T03:27:24.692Z,46.83
2019-05-19T03:29:56.280Z,44.27
2019-05-19T03:35:11.548Z,44.08
2019-05-19T03:37:40.253Z,44.55
2019-05-19T03:40:20.128Z,41.73
2019-05-19T03:42:49.708Z,44.50
2019-05-19T03:45:18.213Z,40.92
2019-05-19T03:47:46.699Z,41.83
2019-05-19T03:50:15.430Z,45.10
2019-05-19T03:55:11.874Z,47.25
2019-05-19T03:57:40.104Z,50.98
2019-05-19T04:00:08.974Z,44.13
2019-05-19T04:02:37.466Z,43.30
2019-05-19T04:07:34.387Z,46.37
2019-05-19T04:10:02.554Z,39.40
2019-05-19T04:14:59.644Z,40.78
2019-05-19T04:17:27.764Z,43.23
2019-05-19T04:19:56.734Z,48.35
2019-05-19T04:22:24.893Z,67.00
2019-05-19T04:24:53.046Z,58.78
2019-05-19T04:27:21.482Z,54.33
2019-05-19T04:29:49.709Z,50.80
2019-05-19T04:34:46.920Z,51.92
2019-05-19T04:37:15.038Z,44.88
2019-05-19T04:39:43.161Z,40.85
2019-05-19T04:42:11.755Z,42.62
2019-05-19T04:44:39.880Z,49.42
2019-05-19T04:47:08.341Z,57.83
2019-05-19T04:49:36.935Z,47.03
2019-05-19T04:52:07.312Z,39.05
2019-05-19T04:54:35.595Z,36.60
2019-05-19T04:57:04.014Z,36.25
2019-05-19T05:02:01.181Z,34.75
2019-05-19T05:04:29.747Z,35.43
2019-05-19T05:06:58.464Z,34.35
2019-05-19T05:09:26.935Z,33.73
2019-05-19T05:11:55.525Z,33.23
2019-05-19T05:14:23.626Z,34.50
2019-05-19T05:16:51.731Z,32.33
2019-05-19T05:21:48.390Z,33.38
2019-05-19T05:24:17.019Z,28.05
2019-05-19T05:26:45.223Z,31.25
2019-05-19T05:29:13.833Z,30.95
2019-05-19T05:31:42.053Z,33.25
2019-05-19T05:34:10.511Z,28.92
2019-05-19T05:36:39.588Z,34.63
2019-05-19T05:41:36.163Z,31.90
2019-05-19T05:44:04.662Z,30.82
2019-05-19T05:46:33.102Z,30.57
2019-05-19T05:49:01.333Z,29.87
2019-05-19T05:51:29.405Z,29.75
2019-05-19T05:53:58.337Z,28.92
2019-05-19T05:56:26.868Z,29.20
2019-05-19T06:01:24.277Z,29.92
2019-05-19T06:03:52.488Z,29.35
2019-05-19T06:06:20.940Z,29.10
2019-05-19T06:08:49.068Z,28.83
2019-05-19T06:11:17.660Z,30.05
2019-05-19T06:13:49.284Z,28.15
2019-05-19T06:16:16.138Z,27.65
2019-05-19T06:21:12.851Z,28.02
2019-05-19T06:23:41.432Z,26.77
2019-05-19T06:28:39.755Z,27.17
2019-05-19T06:31:08.009Z,25.52
2019-05-19T06:33:36.713Z,26.12
2019-05-19T06:36:05.613Z,28.10
2019-05-19T06:38:33.748Z,25.20
2019-05-19T06:41:01.896Z,23.32
2019-05-19T06:43:31.089Z,23.65
2019-05-19T06:48:29.285Z,22.07
2019-05-19T06:50:57.639Z,23.20
2019-05-19T06:53:25.733Z,22.87
2019-05-19T06:55:54.267Z,27.13
2019-05-19T06:58:24.124Z,24.23
2019-05-19T07:00:54.581Z,25.48
2019-05-19T07:03:22.552Z,24.50
2019-05-19T07:08:19.323Z,24.87
2019-05-19T07:10:48.140Z,23.52
2019-05-19T07:13:16.781Z,24.65
2019-05-19T07:15:44.816Z,23.67
2019-05-19T07:20:51.119Z,23.38
2019-05-19T07:23:27.763Z,23.77
2019-05-19T07:28:19.188Z,21.04
2019-05-19T07:30:47.219Z,19.65
2019-05-19T07:33:16.973Z,21.70
2019-05-19T07:35:45.753Z,20.30
2019-05-19T07:40:42.049Z,19.80
2019-05-19T07:43:10.798Z,21.55
2019-05-19T07:45:40.809Z,20.88
2019-05-19T07:48:08.909Z,18.80
2019-05-19T07:50:38.168Z,17.15
2019-05-19T07:53:06.459Z,20.80
2019-05-19T07:55:35.124Z,24.17
2019-05-19T08:00:31.537Z,20.62
2019-05-19T08:02:59.662Z,18.57
2019-05-19T08:07:56.476Z,17.65
2019-05-19T08:10:25.646Z,15.33
2019-05-19T08:12:53.815Z,17.60
2019-05-19T08:15:22.136Z,18.30
2019-05-19T08:17:50.557Z,15.75
2019-05-19T08:20:19.182Z,17.42
2019-05-19T08:22:50.786Z,16.00
2019-05-19T08:27:47.860Z,14.40
2019-05-19T08:30:15.986Z,13.58
2019-05-19T08:32:44.417Z,16.32
2019-05-19T08:35:12.455Z,14.47
2019-05-19T08:37:41.269Z,13.50
2019-05-19T08:40:09.716Z,15.72
2019-05-19T08:42:38.709Z,14.93
2019-05-19T08:47:36.704Z,13.08
2019-05-19T08:50:05.462Z,13.60
2019-05-19T08:52:33.646Z,13.48
2019-05-19T08:55:02.153Z,12.90
2019-05-19T09:00:00.692Z,13.00
2019-05-19T09:02:29.769Z,13.50
2019-05-19T09:07:25.882Z,12.13
2019-05-19T09:09:54.140Z,17.82
2019-05-19T09:12:22.842Z,12.98
2019-05-19T09:14:50.892Z,12.50
2019-05-19T09:17:19.450Z,13.22
2019-05-19T09:19:47.835Z,12.50
2019-05-19T09:22:15.866Z,12.80
2019-05-19T09:27:12.476Z,11.18
2019-05-19T09:29:42.408Z,10.70
2019-05-19T09:32:10.463Z,10.75
2019-05-19T09:34:40.244Z,10.90
2019-05-19T09:37:08.530Z,9.85
2019-05-19T09:39:40.054Z,10.68
2019-05-19T09:42:08.192Z,11.88
2019-05-19T09:47:04.855Z,9.90
2019-05-19T09:49:33.266Z,9.67
2019-05-19T09:52:02.373Z,10.05
2019-05-19T09:54:44.256Z,8.43
2019-05-19T09:59:30.080Z,9.50
2019-05-19T10:01:58.860Z,8.43
2019-05-19T10:04:27.168Z,8.60
2019-05-19T10:06:55.661Z,9.15
2019-05-19T10:09:49.141Z,8.53
2019-05-19T10:12:17.420Z,8.25
2019-05-19T10:17:14.934Z,8.70
2019-05-19T10:19:43.128Z,8.87
2019-05-19T10:22:11.817Z,8.45
2019-05-19T10:24:40.465Z,9.05
2019-05-19T10:27:08.473Z,9.70
2019-05-19T10:32:04.984Z,9.43
2019-05-19T10:34:33.065Z,8.60
2019-05-19T10:37:01.202Z,8.13
2019-05-19T10:39:29.656Z,8.70
2019-05-19T10:41:57.936Z,8.85
2019-05-19T10:44:27.014Z,8.30
2019-05-19T10:46:55.466Z,10.20
2019-05-19T10:51:51.973Z,9.13
2019-05-19T10:54:21.970Z,8.67
2019-05-19T10:56:50.126Z,9.00
2019-05-19T10:59:18.941Z,8.88
2019-05-19T11:01:47.103Z,10.20
2019-05-19T11:04:15.595Z,8.60
2019-05-19T11:06:44.326Z,9.15
2019-05-19T11:11:43.169Z,7.10
2019-05-19T11:14:11.327Z,8.50
2019-05-19T11:16:39.790Z,7.35
2019-05-19T11:19:11.450Z,6.90
2019-05-19T11:24:08.521Z,7.62
2019-05-19T11:26:37.196Z,8.85
2019-05-19T11:31:33.974Z,9.30
2019-05-19T11:34:02.289Z,9.60
2019-05-19T11:36:30.509Z,7.75
2019-05-19T11:38:59.467Z,8.10
2019-05-19T11:41:28.122Z,7.25
2019-05-19T11:43:56.639Z,8.88
2019-05-19T11:46:25.088Z,8.00
2019-05-19T11:51:21.870Z,8.38
2019-05-19T11:53:49.898Z,7.22
2019-05-19T11:58:46.880Z,7.60
2019-05-19T12:01:15.989Z,7.00
2019-05-19T12:03:45.604Z,7.37
2019-05-19T12:06:14.176Z,7.70
2019-05-19T12:08:42.417Z,9.58
2019-05-19T12:11:10.535Z,7.47
2019-05-19T12:13:39.092Z,8.23
2019-05-19T12:18:36.604Z,9.50
2019-05-19T12:21:05.066Z,8.03
2019-05-19T12:23:33.303Z,9.50
2019-05-19T12:26:01.477Z,7.40
2019-05-19T12:28:30.226Z,7.20
2019-05-19T12:30:58.713Z,10.80
2019-05-19T12:33:26.928Z,8.50
2019-05-19T12:35:55.887Z,6.70
2019-05-19T12:38:24.135Z,7.80
2019-05-19T12:40:52.577Z,6.85
2019-05-19T12:45:50.766Z,8.78
2019-05-19T12:48:20.859Z,9.73
2019-05-19T12:50:48.872Z,7.28
2019-05-19T12:53:17.334Z,7.28
2019-05-19T12:55:45.939Z,7.20
2019-05-19T12:58:14.260Z,7.17
2019-05-19T13:00:42.676Z,10.98
2019-05-19T13:05:39.224Z,6.55
2019-05-19T13:08:07.670Z,6.67
2019-05-19T13:10:36.097Z,5.83
2019-05-19T13:13:04.647Z,5.70
2019-05-19T13:18:01.951Z,6.20
2019-05-19T13:20:30.217Z,5.92
2019-05-19T13:22:58.901Z,9.77
2019-05-19T13:25:26.993Z,8.65
2019-05-19T13:27:55.265Z,7.33
2019-05-19T13:30:23.542Z,5.58
2019-05-19T13:32:51.984Z,7.30
2019-05-19T13:37:49.395Z,7.12
2019-05-19T13:40:17.695Z,6.22
2019-05-19T13:42:46.029Z,7.40
2019-05-19T13:45:14.530Z,6.05
2019-05-19T13:47:43.096Z,6.22
2019-05-19T13:50:11.978Z,12.58
2019-05-19T13:52:40.359Z,7.60
2019-05-19T13:57:39.397Z,5.78
2019-05-19T14:00:07.866Z,7.30
2019-05-19T14:05:04.633Z,8.80
2019-05-19T14:07:32.740Z,9.63
2019-05-19T14:10:00.815Z,10.00
2019-05-19T14:12:29.229Z,12.70
2019-05-19T14:14:57.718Z,7.97
2019-05-19T14:17:26.247Z,7.87
2019-05-19T14:19:54.257Z,7.60
2019-05-19T14:24:50.432Z,5.80
2019-05-19T14:27:29.198Z,7.90
2019-05-19T14:29:48.198Z,6.42
2019-05-19T14:32:16.668Z,7.28
2019-05-19T14:34:44.989Z,7.15
2019-05-19T14:37:13.097Z,7.10
2019-05-19T14:39:41.898Z,6.70
2019-05-19T14:44:41.978Z,7.05
2019-05-19T14:47:10.161Z,7.80
2019-05-19T14:49:38.575Z,17.92
2019-05-19T14:52:08.341Z,9.50
2019-05-19T14:54:36.664Z,7.75
2019-05-19T14:57:05.311Z,6.20
2019-05-19T14:59:34.090Z,5.60
2019-05-19T15:04:49.048Z,10.60
2019-05-19T15:07:19.262Z,8.03
2019-05-19T15:09:47.549Z,8.73
2019-05-19T15:12:16.580Z,6.03
2019-05-19T15:14:44.655Z,8.67
2019-05-19T15:17:12.767Z,5.78
2019-05-19T15:22:09.682Z,6.80
2019-05-19T15:24:38.251Z,6.50
2019-05-19T15:27:07.001Z,7.08
2019-05-19T15:29:35.125Z,5.80
2019-05-19T15:32:03.278Z,6.50
2019-05-19T15:37:00.187Z,10.10
2019-05-19T15:39:28.248Z,9.95
2019-05-19T15:41:56.522Z,13.15
2019-05-19T15:44:24.803Z,7.80
2019-05-19T15:46:54.234Z,11.70
2019-05-19T15:49:23.053Z,7.40
2019-05-19T15:52:01.523Z,7.33
2019-05-19T15:56:50.954Z,8.05
2019-05-19T15:59:19.546Z,7.05
2019-05-19T16:01:47.594Z,6.37
2019-05-19T16:04:16.241Z,7.53
2019-05-19T16:06:44.343Z,6.80
2019-05-19T16:09:13.643Z,7.20
2019-05-19T16:11:42.123Z,5.17
2019-05-19T16:14:11.149Z,6.22
2019-05-19T16:16:39.467Z,6.30
2019-05-19T16:19:08.021Z,12.28
2019-05-19T16:21:36.119Z,6.90
2019-05-19T16:24:04.839Z,7.90
2019-05-19T16:29:01.191Z,6.40
2019-05-19T16:31:29.550Z,6.90
2019-05-19T16:36:26.187Z,6.92
2019-05-19T16:38:54.248Z,8.05
2019-05-19T16:41:22.345Z,6.47
2019-05-19T16:43:50.656Z,7.80
2019-05-19T16:46:19.226Z,6.17
2019-05-19T16:48:47.325Z,6.53
2019-05-19T16:51:15.412Z,6.83
2019-05-19T16:56:13.855Z,10.40
2019-05-19T16:58:45.361Z,7.97
2019-05-19T17:01:12.515Z,7.30
2019-05-19T17:03:40.966Z,7.87
2019-05-19T17:06:09.504Z,7.70
2019-05-19T17:08:37.557Z,7.28
2019-05-19T17:11:17.622Z,7.95
2019-05-19T17:13:35.693Z,8.15
2019-05-19T17:16:03.729Z,9.20
2019-05-19T17:18:31.853Z,8.48
2019-05-19T17:21:00.164Z,8.50
2019-05-19T17:23:28.818Z,9.30
2019-05-19T17:28:25.371Z,8.00
2019-05-19T17:30:53.509Z,8.73
2019-05-19T17:35:50.021Z,9.00
2019-05-19T17:38:19.862Z,6.83
2019-05-19T17:40:48.272Z,11.03
2019-05-19T17:43:16.429Z,8.05
2019-05-19T17:45:44.877Z,8.23
2019-05-19T17:48:25.765Z,7.92
2019-05-19T17:50:42.784Z,7.05
2019-05-19T17:53:10.890Z,9.03
2019-05-19T17:55:39.389Z,7.87
2019-05-19T17:58:07.524Z,7.05
2019-05-19T18:00:37.325Z,13.40
2019-05-19T18:05:34.433Z,7.33
2019-05-19T18:08:02.591Z,6.67
2019-05-19T18:10:32.197Z,9.23
2019-05-19T18:13:00.367Z,6.80
2019-05-19T18:15:28.420Z,7.20
2019-05-19T18:17:56.872Z,7.43
2019-05-19T18:20:25.490Z,8.63
2019-05-19T18:25:22.552Z,9.43
2019-05-19T18:27:51.303Z,8.28
2019-05-19T18:32:48.005Z,8.18
2019-05-19T18:35:16.103Z,13.98
2019-05-19T18:37:44.208Z,9.37
2019-05-19T18:40:12.566Z,9.65
2019-05-19T18:45:10.852Z,13.65
2019-05-19T18:47:39.374Z,11.78
2019-05-19T18:50:08.210Z,8.63
2019-05-19T18:52:36.770Z,7.50
2019-05-19T18:55:05.036Z,10.65
2019-05-19T18:57:33.639Z,8.90
2019-05-19T19:00:01.710Z,10.80
2019-05-19T19:05:00.550Z,11.18
2019-05-19T19:07:52.461Z,11.63
2019-05-19T19:10:20.892Z,13.62
2019-05-19T19:12:49.451Z,12.37
2019-05-19T19:15:17.888Z,10.10
2019-05-19T19:17:46.342Z,11.57
2019-05-19T19:22:43.274Z,9.30
2019-05-19T19:25:11.793Z,10.07
2019-05-19T19:27:39.945Z,11.85
2019-05-19T19:30:08.935Z,12.63
2019-05-19T19:32:37.368Z,10.32
2019-05-19T19:37:34.332Z,10.50
2019-05-19T19:40:03.193Z,14.60
2019-05-19T19:42:31.980Z,11.75
2019-05-19T19:45:00.306Z,18.95
2019-05-19T19:49:56.811Z,15.90
2019-05-19T19:52:25.299Z,14.00
2019-05-19T19:54:53.779Z,12.05
2019-05-19T19:57:22.867Z,15.50
2019-05-19T19:59:51.173Z,10.93
2019-05-19T20:02:19.428Z,13.08
2019-05-19T20:04:47.758Z,11.97
2019-05-19T20:09:44.175Z,12.20
2019-05-19T20:12:12.239Z,11.35
2019-05-19T20:14:40.547Z,13.40
2019-05-19T20:17:08.579Z,12.03
2019-05-19T20:19:36.934Z,12.93
2019-05-19T20:22:05.214Z,13.68
2019-05-19T20:24:33.581Z,14.53
2019-05-19T20:29:30.318Z,13.43
2019-05-19T20:31:58.373Z,14.10
2019-05-19T20:34:26.697Z,13.10
2019-05-19T20:36:54.796Z,12.43
2019-05-19T20:39:22.886Z,12.87
2019-05-19T20:41:50.940Z,13.25
2019-05-19T20:44:18.992Z,12.58
2019-05-19T20:49:15.780Z,13.63
2019-05-19T20:51:43.981Z,13.20
2019-05-19T20:54:12.291Z,13.40
2019-05-19T20:56:40.397Z,12.88
2019-05-19T20:59:08.468Z,16.80
2019-05-19T21:01:36.789Z,14.33
2019-05-19T21:04:04.840Z,14.17
2019-05-19T21:09:01.263Z,13.80
2019-05-19T21:11:29.305Z,13.77
2019-05-19T21:13:57.901Z,13.85
2019-05-19T21:16:26.406Z,12.85
2019-05-19T21:18:54.780Z,14.03
2019-05-19T21:21:23.264Z,14.47
2019-05-19T21:23:51.895Z,14.83
2019-05-19T21:28:48.159Z,13.18
2019-05-19T21:31:16.737Z,13.48
2019-05-19T21:33:44.997Z,13.25
2019-05-19T21:36:13.541Z,13.53
2019-05-19T21:38:42.562Z,15.05
2019-05-19T21:41:10.964Z,15.08
2019-05-19T21:43:39.339Z,14.75
2019-05-19T21:46:07.492Z,14.03
2019-05-19T21:48:35.948Z,13.50
2019-05-19T21:51:04.180Z,12.25
2019-05-19T21:56:01.103Z,14.13
2019-05-19T21:58:29.499Z,16.70
2019-05-19T22:00:58.218Z,16.60
2019-05-19T22:03:26.463Z,17.20
2019-05-19T22:05:55.180Z,17.37
2019-05-19T22:08:23.451Z,15.15
2019-05-19T22:10:51.579Z,19.37
2019-05-19T22:15:48.820Z,17.20
2019-05-19T22:18:17.074Z,16.25
2019-05-19T22:20:45.670Z,17.05
2019-05-19T22:23:14.450Z,18.52
2019-05-19T22:28:11.652Z,16.12
2019-05-19T22:30:40.276Z,19.20
2019-05-19T22:33:13.237Z,19.20
2019-05-19T22:35:41.388Z,20.20
2019-05-19T22:38:09.819Z,20.15
2019-05-19T22:40:38.308Z,19.30
2019-05-19T22:43:06.576Z,19.45
2019-05-19T22:48:03.123Z,19.82
2019-05-19T22:50:31.633Z,21.45
2019-05-19T22:53:00.228Z,20.63
2019-05-19T22:55:28.525Z,20.95
2019-05-19T23:00:26.325Z,19.35
2019-05-19T23:02:54.542Z,20.67
2019-05-19T23:07:51.399Z,17.92
2019-05-19T23:10:20.023Z,20.25
2019-05-19T23:12:48.393Z,23.20
2019-05-19T23:15:16.973Z,23.25
2019-05-19T23:17:45.146Z,29.10
2019-05-19T23:20:14.958Z,31.10
2019-05-19T23:22:43.689Z,39.60
2019-05-19T23:27:40.076Z,40.90
2019-05-19T23:30:09.279Z,41.30
2019-05-19T23:32:38.049Z,47.70
2019-05-19T23:35:06.760Z,42.93
2019-05-19T23:40:04.318Z,48.60
2019-05-19T23:42:32.505Z,46.35
2019-05-19T23:45:00.707Z,48.87
2019-05-19T23:47:29.214Z,51.25
2019-05-19T23:49:57.555Z,45.45
2019-05-19T23:52:26.124Z,48.52
2019-05-19T23:54:54.342Z,47.10
2019-05-19T23:59:51.539Z,45.85
